Time;durP1;ratioP1;P1;durP2;ratioP2;P2;SDS_P1;SDS_P2;PMS_P1;PMS_P2;Temp;Humidity;BMP_temperature;BMP_pressure;BME280_temperature;BME280_humidity;BME280_pressure;Samples;Min_cycle;Max_cycle;Signal;HPM_P1;HPM_P2
2022/07/18 00:02:02;;;;;;;0.00;0.00;;;;;;;25.24;39.88;101258.06;7357319;19;20019;-62
2022/07/18 00:04:28;;;;;;;0.10;0.10;;;;;;;25.09;41.12;101244.91;7354263;19;20014;-62
2022/07/18 00:06:54;;;;;;;0.05;0.05;;;;;;;25.16;40.89;101260.50;7356942;19;20011;-62
2022/07/18 00:09:22;;;;;;;0.10;0.10;;;;;;;25.12;40.91;101259.00;7357307;19;20021;-61
2022/07/18 00:11:48;;;;;;;0.10;0.10;;;;;;;24.96;40.16;101243.25;7357021;19;20010;-62
2022/07/18 00:14:13;;;;;;;0.00;0.00;;;;;;;24.95;40.44;101247.72;7355073;19;20014;-61
2022/07/18 00:16:39;;;;;;;0.10;0.10;;;;;;;24.98;40.79;101260.00;7359565;19;21231;-62
2022/07/18 00:19:05;;;;;;;0.10;0.10;;;;;;;24.92;39.92;101261.31;7356046;19;20046;-62
2022/07/18 00:21:32;;;;;;;0.00;0.00;;;;;;;24.87;40.66;101258.13;7358569;19;20860;-61
2022/07/18 00:23:57;;;;;;;0.00;0.00;;;;;;;24.81;40.68;101250.56;7355074;19;20135;-61
2022/07/18 00:26:22;;;;;;;0.10;0.10;;;;;;;24.74;41.30;101244.84;7358003;19;20347;-62
2022/07/18 00:28:48;;;;;;;0.10;0.10;;;;;;;24.69;40.80;101248.81;7357306;19;20017;-61
2022/07/18 00:31:13;;;;;;;0.10;0.10;;;;;;;24.62;41.10;101250.22;7358612;19;20006;-61
2022/07/18 00:33:39;;;;;;;0.10;0.10;;;;;;;24.54;41.19;101248.13;7357120;19;20691;-62
2022/07/18 00:36:04;;;;;;;0.00;0.00;;;;;;;24.37;40.99;101233.28;7357698;19;20501;-61
2022/07/18 00:38:30;;;;;;;0.00;0.00;;;;;;;24.39;41.27;101255.41;7358265;19;20018;-62
2022/07/18 00:40:55;;;;;;;0.00;0.00;;;;;;;24.32;41.25;101259.44;7357664;19;20536;-61
2022/07/18 00:43:21;;;;;;;0.00;0.00;;;;;;;24.26;41.91;101254.53;7356085;19;20019;-62
2022/07/18 00:45:49;;;;;;;0.10;0.10;;;;;;;24.18;41.73;101252.44;7356841;19;20713;-61
2022/07/18 00:48:15;;;;;;;0.05;0.05;;;;;;;24.10;42.20;101245.94;7355116;19;20010;-61
2022/07/18 00:50:43;;;;;;;0.00;0.00;;;;;;;24.03;42.55;101243.69;7356142;19;20014;-61
2022/07/18 00:53:10;;;;;;;0.10;0.10;;;;;;;23.98;41.65;101245.84;7355126;19;20011;-61
2022/07/18 00:55:43;;;;;;;0.00;0.00;;;;;;;23.85;42.26;101231.63;7357051;19;20073;-61
2022/07/18 00:58:10;;;;;;;0.10;0.10;;;;;;;23.75;42.91;101228.75;7350946;19;20026;-62
2022/07/18 01:03:22;;;;;;;0.00;0.00;;;;;;;23.73;42.73;101248.50;7355035;19;20041;-61
2022/07/18 01:05:47;;;;;;;0.10;0.10;;;;;;;23.67;43.46;101251.56;7357806;19;20094;-61
2022/07/18 01:08:13;;;;;;;0.05;0.05;;;;;;;23.60;43.01;101248.44;7358765;19;20010;-61
2022/07/18 01:10:38;;;;;;;0.00;0.00;;;;;;;23.52;43.46;101235.66;7358258;19;20030;-61
2022/07/18 01:13:04;;;;;;;0.00;0.00;;;;;;;23.47;43.60;101240.44;7354985;19;20081;-62
2022/07/18 01:15:29;;;;;;;0.10;0.10;;;;;;;23.42;43.94;101237.25;7357236;19;20033;-62
2022/07/18 01:17:55;;;;;;;0.00;0.00;;;;;;;23.37;43.40;101238.50;7357747;19;20114;-62
2022/07/18 01:20:20;;;;;;;0.00;0.00;;;;;;;23.31;43.36;101235.28;7358105;19;20070;-62
2022/07/18 01:22:46;;;;;;;0.00;0.00;;;;;;;23.27;44.13;101239.13;7358072;19;20037;-62
2022/07/18 01:25:16;;;;;;;0.08;0.08;;;;;;;23.24;44.32;101230.50;7357790;19;20328;-62
2022/07/18 01:27:42;;;;;;;0.00;0.00;;;;;;;23.18;43.90;101228.25;7355769;19;20010;-62
2022/07/18 01:30:09;;;;;;;0.00;0.00;;;;;;;23.16;43.59;101230.13;7357293;19;20010;-62
2022/07/18 01:32:34;;;;;;;0.00;0.00;;;;;;;23.12;44.06;101228.66;7356921;19;20011;-62
2022/07/18 01:35:00;;;;;;;0.00;0.00;;;;;;;23.07;44.02;101226.31;7358976;19;20441;-61
2022/07/18 01:37:25;;;;;;;0.00;0.00;;;;;;;23.03;43.55;101222.13;7357287;19;20010;-62
2022/07/18 01:39:51;;;;;;;0.10;0.10;;;;;;;22.85;43.72;101197.53;7359057;19;20014;-62
2022/07/18 01:42:17;;;;;;;0.00;0.00;;;;;;;22.93;43.97;101213.88;7358513;19;20035;-62
2022/07/18 01:44:43;;;;;;;0.10;0.10;;;;;;;22.91;44.14;101213.16;7357230;19;20110;-62
2022/07/18 01:47:10;;;;;;;0.00;0.00;;;;;;;22.91;44.07;101218.47;7354988;19;20011;-61
2022/07/18 01:49:36;;;;;;;0.00;0.00;;;;;;;22.87;44.73;101216.94;7358641;19;20032;-61
2022/07/18 01:52:03;;;;;;;0.00;0.00;;;;;;;22.80;44.36;101208.47;7356725;19;20011;-62
2022/07/18 01:54:31;;;;;;;0.10;0.10;;;;;;;22.83;44.21;101210.09;7356368;19;21355;-62
2022/07/18 01:56:56;;;;;;;;;;;;;;;22.81;42.74;101209.34;7359181;19;20113;-62
2022/07/18 01:59:23;;;;;;;0.00;0.00;;;;;;;22.78;44.72;101209.53;7351478;19;19995;-62
2022/07/18 02:01:49;;;;;;;0.10;0.10;;;;;;;22.76;44.64;101206.13;7360138;19;20042;-62
2022/07/18 02:04:14;;;;;;;0.10;0.10;;;;;;;22.75;44.67;101209.72;7360397;19;20410;-62
2022/07/18 02:06:40;;;;;;;0.10;0.10;;;;;;;22.74;44.77;101205.38;7359973;19;20118;-62
2022/07/18 02:09:06;;;;;;;0.00;0.00;;;;;;;22.72;44.68;101201.97;7359561;19;20002;-62
2022/07/18 02:11:33;;;;;;;0.00;0.00;;;;;;;22.66;44.89;101197.03;7361421;19;20029;-62
2022/07/18 02:13:58;;;;;;;0.10;0.10;;;;;;;22.65;44.23;101196.16;7360044;19;20010;-62
2022/07/18 02:16:24;;;;;;;0.10;0.10;;;;;;;22.64;44.80;101205.13;7357611;19;20072;-61
2022/07/18 02:18:52;;;;;;;0.10;0.10;;;;;;;22.62;45.03;101198.19;7361534;19;20184;-62
2022/07/18 02:21:17;;;;;;;0.00;0.00;;;;;;;22.59;45.01;101191.25;7358560;19;20010;-61
2022/07/18 02:23:44;;;;;;;0.05;0.05;;;;;;;22.57;45.25;101189.66;7359185;19;20012;-62
2022/07/18 02:26:10;;;;;;;0.00;0.00;;;;;;;22.54;44.63;101191.53;7359469;19;20478;-62
2022/07/18 02:28:36;;;;;;;0.00;0.00;;;;;;;22.40;44.79;101169.44;7358828;19;20018;-61
2022/07/18 02:31:02;;;;;;;0.00;0.00;;;;;;;22.41;44.95;101174.69;7360305;19;20094;-62
2022/07/18 02:33:27;;;;;;;0.00;0.00;;;;;;;22.39;44.40;101175.72;7359150;19;20066;-62
2022/07/18 02:35:53;;;;;;;0.00;0.00;;;;;;;22.46;45.01;101188.53;7358282;19;20659;-62
2022/07/18 02:38:18;;;;;;;0.00;0.00;;;;;;;22.43;44.84;101183.41;7360182;19;20082;-62
2022/07/18 02:40:44;;;;;;;0.00;0.00;;;;;;;22.40;45.05;101178.28;7358505;19;20010;-61
2022/07/18 02:43:09;;;;;;;0.00;0.00;;;;;;;22.40;45.32;101188.06;7357817;19;20024;-62
2022/07/18 02:45:35;;;;;;;0.00;0.00;;;;;;;22.36;46.05;101182.09;7358985;19;20030;-62
2022/07/18 02:48:01;;;;;;;0.10;0.10;;;;;;;22.36;45.47;101182.09;7360841;19;20010;-61
2022/07/18 02:50:27;;;;;;;0.00;0.00;;;;;;;22.36;45.92;101186.59;7364820;19;20013;-62
2022/07/18 02:52:52;;;;;;;0.00;0.00;;;;;;;22.23;45.66;101168.72;7362580;19;20019;-62
2022/07/18 02:55:18;;;;;;;0.03;0.03;;;;;;;22.30;45.43;101176.31;7365045;19;20061;-61
2022/07/18 02:57:43;;;;;;;0.00;0.00;;;;;;;22.22;45.76;101174.16;7364790;19;20577;-61
2022/07/18 03:00:11;;;;;;;0.10;0.10;;;;;;;22.23;46.20;101176.69;7364722;19;20038;-62
2022/07/18 03:02:37;;;;;;;0.10;0.10;;;;;;;22.21;46.49;101175.09;7366657;19;20074;-61
2022/07/18 03:05:04;;;;;;;0.00;0.00;;;;;;;22.19;46.48;101179.66;7353851;19;20006;-62
2022/07/18 03:07:30;;;;;;;0.00;0.00;;;;;;;22.15;46.58;101178.13;7364252;19;20029;-62
2022/07/18 03:09:55;;;;;;;0.10;0.10;;;;;;;22.14;45.91;101173.78;7367856;19;20093;-62
2022/07/18 03:12:21;;;;;;;0.10;0.10;;;;;;;22.06;46.81;101162.75;7364038;19;20014;-62
2022/07/18 03:14:46;;;;;;;0.00;0.00;;;;;;;22.08;46.77;101166.16;7368323;19;20014;-61
2022/07/18 03:17:12;;;;;;;0.10;0.10;;;;;;;22.07;47.07;101169.78;7365897;19;20041;-61
2022/07/18 03:19:37;;;;;;;0.00;0.00;;;;;;;21.99;46.94;101157.78;7355131;19;20018;-62
2022/07/18 03:22:04;;;;;;;0.00;0.00;;;;;;;22.00;46.83;101175.50;7359460;19;20058;-61
2022/07/18 03:24:30;;;;;;;0.00;0.00;;;;;;;21.97;46.49;101172.16;7358978;19;20006;-62
2022/07/18 03:26:56;;;;;;;0.00;0.00;;;;;;;21.94;47.12;101170.53;7359031;19;20133;-61
2022/07/18 03:29:21;;;;;;;0.10;0.10;;;;;;;21.88;46.60;101168.25;7361638;19;20742;-61
2022/07/18 03:31:47;;;;;;;0.05;0.05;;;;;;;21.86;47.06;101175.50;7361625;19;20010;-62
2022/07/18 03:34:13;;;;;;;0.10;0.10;;;;;;;21.79;47.13;101168.81;7358736;19;20013;-62
2022/07/18 03:36:38;;;;;;;0.00;0.00;;;;;;;21.77;46.52;101168.09;7359957;19;20014;-62
2022/07/18 03:39:05;;;;;;;0.10;0.10;;;;;;;21.69;46.94;101167.69;7361864;19;20006;-62
2022/07/18 03:41:31;;;;;;;0.00;0.00;;;;;;;21.72;47.25;101175.47;7361949;19;20089;-62
2022/07/18 03:43:57;;;;;;;0.00;0.00;;;;;;;21.69;46.66;101175.66;7361750;19;20106;-62
2022/07/18 03:46:22;;;;;;;0.00;0.00;;;;;;;21.66;46.91;101165.25;7358665;19;20653;-61
2022/07/18 03:48:48;;;;;;;0.00;0.00;;;;;;;21.59;47.29;101161.22;7361497;19;20526;-61
2022/07/18 03:51:13;;;;;;;0.00;0.00;;;;;;;21.55;47.42;101159.72;7360160;19;20038;-61
2022/07/18 03:53:39;;;;;;;0.05;0.05;;;;;;;21.53;47.90;101159.81;7364050;19;20023;-62
2022/07/18 03:56:05;;;;;;;0.00;0.00;;;;;;;21.49;47.34;101164.47;7362630;19;20085;-62
2022/07/18 03:58:30;;;;;;;0.08;0.08;;;;;;;21.45;48.26;101162.94;7364009;19;20010;-61
2022/07/18 04:00:56;;;;;;;0.00;0.00;;;;;;;21.42;48.19;101157.81;7362945;19;20049;-62
2022/07/18 04:03:21;;;;;;;0.03;0.03;;;;;;;21.38;47.96;101164.25;7361879;19;20006;-62
2022/07/18 04:05:47;;;;;;;0.00;0.00;;;;;;;21.31;48.33;101149.63;7362812;19;20172;-61
2022/07/18 04:08:12;;;;;;;0.00;0.00;;;;;;;21.20;48.06;101141.44;7361951;19;20014;-62
2022/07/18 04:10:39;;;;;;;0.08;0.08;;;;;;;21.28;47.92;101163.06;7364582;19;20033;-62
2022/07/18 04:13:06;;;;;;;0.00;0.00;;;;;;;21.24;48.49;101153.59;7364964;19;20018;-62
2022/07/18 04:15:32;;;;;;;0.00;0.00;;;;;;;21.20;48.09;101160.03;7362639;19;21462;-61
2022/07/18 04:17:57;;;;;;;0.00;0.00;;;;;;;21.17;48.61;101162.84;7365856;19;20037;-62
2022/07/18 04:20:23;;;;;;;0.00;0.00;;;;;;;21.09;48.25;101143.88;7361787;19;20002;-61
2022/07/18 04:22:51;;;;;;;0.05;0.05;;;;;;;21.10;48.38;101151.75;7364869;19;20115;-62
2022/07/18 04:25:18;;;;;;;0.00;0.00;;;;;;;21.07;48.09;101151.06;7361343;19;20552;-62
2022/07/18 04:27:44;;;;;;;;;;;;;;;21.05;45.98;101142.34;7364633;19;20016;-61
2022/07/18 04:30:10;;;;;;;0.00;0.00;;;;;;;21.00;48.57;101150.59;7363204;19;20266;-62
2022/07/18 04:32:36;;;;;;;0.00;0.00;;;;;;;20.95;48.63;101145.53;7364902;19;20017;-61
2022/07/18 04:35:02;;;;;;;0.00;0.00;;;;;;;20.91;48.76;101141.34;7362818;19;20010;-62
2022/07/18 04:37:31;;;;;;;0.10;0.10;;;;;;;20.77;49.23;101120.06;7362319;19;20126;-62
2022/07/18 04:39:56;;;;;;;0.00;0.00;;;;;;;20.83;49.10;101138.28;7362974;19;20019;-61
2022/07/18 04:42:22;;;;;;;0.00;0.00;;;;;;;20.80;48.87;101135.81;7360298;19;22308;-62
2022/07/18 04:44:47;;;;;;;0.00;0.00;;;;;;;20.78;49.24;101139.50;7363055;19;20010;-62
2022/07/18 04:47:13;;;;;;;0.00;0.00;;;;;;;20.75;49.44;101137.03;7359153;19;20058;-62
2022/07/18 04:49:38;;;;;;;0.00;0.00;;;;;;;20.72;49.14;101141.56;7361817;19;20030;-62
2022/07/18 04:52:04;;;;;;;0.00;0.00;;;;;;;20.70;49.59;101142.63;7362398;19;20010;-62
2022/07/18 04:54:29;;;;;;;0.00;0.00;;;;;;;20.69;49.89;101140.91;7361560;19;20007;-61
2022/07/18 04:56:54;;;;;;;0.00;0.00;;;;;;;20.65;49.67;101140.22;7361402;19;19998;-61
2022/07/18 04:59:20;;;;;;;0.00;0.00;;;;;;;20.64;49.73;101142.97;7362552;19;20561;-61
2022/07/18 05:01:45;;;;;;;0.10;0.10;;;;;;;20.63;49.54;101133.28;7361932;19;20014;-61
2022/07/18 05:04:10;;;;;;;0.10;0.10;;;;;;;20.61;49.96;101132.53;7362441;19;20002;-62
2022/07/18 05:06:36;;;;;;;0.00;0.00;;;;;;;20.60;50.15;101136.13;7363436;19;20822;-61
2022/07/18 05:09:02;;;;;;;0.00;0.00;;;;;;;20.59;49.08;101126.47;7362480;19;20009;-61
2022/07/18 05:11:27;;;;;;;0.00;0.00;;;;;;;20.56;50.24;101129.28;7360457;19;20018;-61
2022/07/18 05:13:52;;;;;;;0.00;0.00;;;;;;;20.57;50.09;101136.28;7360664;19;20742;-62
2022/07/18 05:16:18;;;;;;;0.10;0.10;;;;;;;20.56;50.14;101135.44;7360769;19;20014;-61
2022/07/18 05:18:43;;;;;;;0.10;0.10;;;;;;;20.52;50.15;101130.41;7362877;19;20011;-60
2022/07/18 05:21:09;;;;;;;0.10;0.10;;;;;;;20.56;50.46;101138.09;7360501;19;20010;-62
2022/07/18 05:23:34;;;;;;;0.08;0.08;;;;;;;20.57;50.85;101138.94;7361514;19;20040;-61
2022/07/18 05:25:59;;;;;;;0.00;0.00;;;;;;;20.57;50.61;101136.28;7359733;19;20009;-62
2022/07/18 05:28:25;;;;;;;0.10;0.10;;;;;;;20.55;50.40;101133.75;7361189;19;20050;-62
2022/07/18 05:30:51;;;;;;;0.10;0.10;;;;;;;20.58;49.42;101132.69;7361109;19;20098;-62
2022/07/18 05:33:16;;;;;;;0.00;0.00;;;;;;;20.58;49.92;101132.69;7361110;19;20814;-61
2022/07/18 05:35:41;;;;;;;0.08;0.08;;;;;;;20.44;50.01;101120.22;7361711;19;20156;-61
2022/07/18 05:38:07;;;;;;;0.00;0.00;;;;;;;20.53;49.72;101134.75;7358045;19;20045;-62
2022/07/18 05:40:33;;;;;;;0.00;0.00;;;;;;;20.54;50.15;101137.34;7361404;19;20139;-62
2022/07/18 05:42:58;;;;;;;0.00;0.00;;;;;;;20.53;50.14;101126.78;7360736;19;20006;-62
2022/07/18 05:45:24;;;;;;;0.00;0.00;;;;;;;20.54;50.69;101123.22;7362482;19;20458;-62
2022/07/18 05:47:50;;;;;;;0.00;0.00;;;;;;;20.56;49.96;101123.97;7361907;19;20462;-61
2022/07/18 05:50:16;;;;;;;0.10;0.10;;;;;;;20.58;49.90;101124.72;7360026;19;20010;-62
2022/07/18 05:52:41;;;;;;;0.00;0.00;;;;;;;20.62;50.48;101115.66;7357133;19;19998;-60
2022/07/18 05:55:07;;;;;;;0.10;0.10;;;;;;;20.65;50.50;101118.16;7360518;19;20050;-61
2022/07/18 05:57:33;;;;;;;0.00;0.00;;;;;;;20.69;49.92;101125.00;7355114;19;20023;-62
2022/07/18 05:59:58;;;;;;;0.00;0.00;;;;;;;20.64;50.56;101111.97;7360174;19;20027;-61
2022/07/18 06:02:24;;;;;;;0.10;0.10;;;;;;;20.78;50.00;101120.91;7363213;19;20018;-61
2022/07/18 06:04:49;;;;;;;0.00;0.00;;;;;;;20.85;50.31;101119.63;7362471;19;20090;-61
2022/07/18 06:07:15;;;;;;;0.00;0.00;;;;;;;20.89;50.32;101122.03;7361425;19;20017;-62
2022/07/18 06:09:40;;;;;;;0.00;0.00;;;;;;;20.95;50.07;101128.75;7358276;19;20010;-62
2022/07/18 06:12:06;;;;;;;0.00;0.00;;;;;;;21.01;50.63;101120.44;7362880;19;20010;-61
2022/07/18 06:14:31;;;;;;;0.08;0.08;;;;;;;21.06;50.42;101112.19;7362417;19;20018;-62
2022/07/18 06:16:57;;;;;;;0.00;0.00;;;;;;;21.14;50.65;101117.91;7356304;19;20094;-61
2022/07/18 06:19:24;;;;;;;0.05;0.05;;;;;;;21.20;50.92;101122.84;7357422;19;20007;-62
2022/07/18 06:21:50;;;;;;;0.00;0.00;;;;;;;21.27;49.84;101118.84;7356479;19;20010;-63
2022/07/18 06:24:15;;;;;;;0.00;0.00;;;;;;;21.34;50.08;101124.66;7361270;19;20021;-61
2022/07/18 06:26:40;;;;;;;0.00;0.00;;;;;;;21.41;49.71;101118.06;7360425;19;20018;-62
2022/07/18 06:29:06;;;;;;;0.00;0.00;;;;;;;21.42;50.01;101115.28;7361687;19;20023;-62
2022/07/18 06:31:31;;;;;;;0.00;0.00;;;;;;;21.59;49.78;101126.69;7367571;19;20010;-62
2022/07/18 06:33:57;;;;;;;0.00;0.00;;;;;;;21.66;50.46;101126.22;7367536;19;20006;-62
2022/07/18 06:36:23;;;;;;;0.00;0.00;;;;;;;21.67;49.89;101114.63;7369523;19;20002;-61
2022/07/18 06:38:50;;;;;;;0.00;0.00;;;;;;;21.83;49.59;101124.31;7367425;19;20475;-62
2022/07/18 06:41:16;;;;;;;0.10;0.10;;;;;;;21.89;49.03;101130.06;7366914;19;20027;-62
2022/07/18 06:43:42;;;;;;;0.05;0.05;;;;;;;21.96;49.84;101120.78;7366623;19;20025;-61
2022/07/18 06:46:07;;;;;;;0.00;0.00;;;;;;;21.94;48.92;101101.38;7366588;19;20010;-61
2022/07/18 06:48:34;;;;;;;0.10;0.10;;;;;;;22.13;48.40;101114.41;7367816;19;20117;-62
2022/07/18 06:51:01;;;;;;;0.00;0.00;;;;;;;22.21;48.30;101116.59;7365414;19;20026;-60
2022/07/18 06:53:27;;;;;;;0.00;0.00;;;;;;;22.29;48.08;101124.91;7367262;19;20006;-61
2022/07/18 06:55:53;;;;;;;0.10;0.10;;;;;;;22.36;47.97;101123.56;7365832;19;20078;-60
2022/07/18 06:58:18;;;;;;;0.10;0.10;;;;;;;22.44;47.86;101120.38;7367803;19;20085;-62
2022/07/18 07:00:44;;;;;;;0.00;0.00;;;;;;;22.41;47.94;101108.16;7366281;19;20035;-62
2022/07/18 07:03:09;;;;;;;0.10;0.10;;;;;;;22.57;48.52;101120.44;7367172;19;20038;-61
2022/07/18 07:05:34;;;;;;;0.10;0.10;;;;;;;22.63;47.60;101125.34;7366748;19;20043;-62
2022/07/18 07:08:00;;;;;;;0.00;0.00;;;;;;;22.69;47.67;101119.63;7364347;19;20018;-62
2022/07/18 07:10:26;;;;;;;0.10;0.10;;;;;;;22.74;47.81;101122.81;7362851;19;20022;-61
2022/07/18 07:12:51;;;;;;;0.03;0.03;;;;;;;22.80;47.90;101127.75;7357397;19;20684;-62
2022/07/18 07:15:21;;;;;;;0.10;0.10;;;;;;;22.90;47.67;101131.53;7357726;19;20017;-62
2022/07/18 07:17:47;;;;;;;0.10;0.10;;;;;;;22.90;47.68;101128.84;7357421;19;20031;-62
2022/07/18 07:20:13;;;;;;;0.00;0.00;;;;;;;23.01;48.27;101134.34;7348729;19;20014;-61
2022/07/18 07:22:46;;;;;;;0.10;0.10;;;;;;;23.09;47.82;101117.81;7357797;19;20416;-61
2022/07/18 07:25:13;;;;;;;0.10;0.10;;;;;;;23.17;48.07;101119.97;7365960;19;20002;-61
2022/07/18 07:27:38;;;;;;;0.00;0.00;;;;;;;23.17;48.26;101106.66;7362516;19;20014;-61
2022/07/18 07:30:04;;;;;;;0.00;0.00;;;;;;;23.29;47.96;101114.63;7367956;19;20095;-61
2022/07/18 07:32:35;;;;;;;0.00;0.00;;;;;;;23.37;47.78;101119.44;7363498;19;20022;-61
2022/07/18 07:35:00;;;;;;;0.10;0.10;;;;;;;23.39;47.80;101114.84;7366220;19;20031;-61
2022/07/18 07:37:26;;;;;;;0.10;0.10;;;;;;;23.40;47.72;101110.34;7367351;19;20006;-61
2022/07/18 07:39:51;;;;;;;0.10;0.10;;;;;;;23.48;48.02;101113.34;7365323;19;20022;-62
2022/07/18 07:42:16;;;;;;;0.10;0.10;;;;;;;23.51;47.45;101119.28;7356713;19;20018;-61
2022/07/18 07:44:42;;;;;;;0.05;0.05;;;;;;;23.58;47.63;101116.22;7366209;19;20042;-62
2022/07/18 07:47:07;;;;;;;0.10;0.10;;;;;;;23.60;47.13;101101.81;7366401;19;20011;-61
2022/07/18 07:49:34;;;;;;;0.10;0.10;;;;;;;23.68;47.05;101109.31;7364672;19;20007;-61
2022/07/18 07:52:00;;;;;;;0.10;0.10;;;;;;;23.75;47.58;101107.91;7364801;19;20014;-62
2022/07/18 07:54:25;;;;;;;0.10;0.10;;;;;;;23.80;47.28;101103.09;7366448;19;21509;-61
2022/07/18 07:56:51;;;;;;;0.10;0.10;;;;;;;23.88;46.98;101098.06;7366415;19;20019;-62
2022/07/18 07:59:17;;;;;;;0.10;0.10;;;;;;;23.95;46.67;101096.66;7365613;19;20018;-61
2022/07/18 08:01:42;;;;;;;0.10;0.10;;;;;;;24.02;46.72;101099.72;7367177;19;20474;-60
2022/07/18 08:04:08;;;;;;;0.05;0.05;;;;;;;24.09;46.34;101103.66;7362658;19;20078;-60
2022/07/18 08:06:33;;;;;;;0.10;0.10;;;;;;;24.16;46.33;101104.06;7364642;19;20023;-60
2022/07/18 08:08:59;;;;;;;0.10;0.10;;;;;;;24.23;46.23;101100.84;7366549;19;20006;-60
2022/07/18 08:11:24;;;;;;;0.10;0.10;;;;;;;24.27;46.27;101090.75;7352525;19;20679;-60
2022/07/18 08:13:50;;;;;;;0.10;0.10;;;;;;;24.32;46.48;101089.44;7366293;19;20006;-61
2022/07/18 08:16:16;;;;;;;0.10;0.10;;;;;;;24.41;46.21;101095.13;7361220;19;22028;-60
2022/07/18 08:18:41;;;;;;;0.05;0.05;;;;;;;24.45;46.33;101092.09;7366371;19;20358;-60
2022/07/18 08:21:06;;;;;;;0.05;0.05;;;;;;;24.53;45.63;101081.72;7364904;19;20013;-60
2022/07/18 08:23:32;;;;;;;0.10;0.10;;;;;;;24.58;46.19;101076.00;7362740;19;20135;-60
2022/07/18 08:25:57;;;;;;;0.10;0.10;;;;;;;24.66;46.31;101080.78;7364407;19;20002;-61
2022/07/18 08:28:24;;;;;;;0.05;0.05;;;;;;;24.74;46.60;101075.72;7360563;19;20006;-60
2022/07/18 08:30:49;;;;;;;0.10;0.10;;;;;;;24.82;46.57;101070.63;7362207;19;20011;-61
2022/07/18 08:33:15;;;;;;;0.00;0.00;;;;;;;24.90;46.44;101068.22;7363558;19;20003;-60
2022/07/18 08:35:41;;;;;;;0.10;0.10;;;;;;;24.96;46.60;101067.75;7364834;19;20010;-60
2022/07/18 08:38:06;;;;;;;0.00;0.00;;;;;;;25.04;46.57;101065.34;7364623;19;20010;-61
2022/07/18 08:40:32;;;;;;;0.03;0.03;;;;;;;25.08;46.29;101072.16;7364973;19;20638;-60
2022/07/18 08:42:58;;;;;;;0.10;0.10;;;;;;;25.19;46.86;101078.47;7365384;19;20723;-61
2022/07/18 08:45:25;;;;;;;0.08;0.08;;;;;;;25.27;46.63;101082.28;7360150;19;20387;-60
2022/07/18 08:47:51;;;;;;;0.10;0.10;;;;;;;25.35;46.40;101079.00;7360967;19;20014;-60
2022/07/18 08:50:18;;;;;;;0.00;0.00;;;;;;;25.42;45.98;101079.38;7362988;19;20014;-60
2022/07/18 08:52:44;;;;;;;0.10;0.10;;;;;;;25.49;46.21;101081.41;7361098;19;20114;-60
2022/07/18 08:55:10;;;;;;;0.00;0.00;;;;;;;25.53;45.76;101077.53;7362880;19;20032;-59
2022/07/18 08:57:36;;;;;;;0.10;0.10;;;;;;;25.65;45.77;101077.53;7361777;19;19998;-60
2022/07/18 09:00:07;;;;;;;0.10;0.10;;;;;;;25.75;45.43;101082.06;7364336;19;20010;-60
2022/07/18 09:02:33;;;;;;;0.10;0.10;;;;;;;25.79;45.33;101077.28;7360792;19;20040;-60
2022/07/18 09:05:01;;;;;;;0.10;0.10;;;;;;;25.89;44.93;101080.94;7362256;19;20015;-60
2022/07/18 09:07:30;;;;;;;0.00;0.00;;;;;;;25.95;44.66;101075.06;7357640;19;20070;-60
2022/07/18 09:09:58;;;;;;;0.00;0.00;;;;;;;25.96;45.10;101063.41;7361302;19;20017;-60
2022/07/18 09:12:29;;;;;;;0.00;0.00;;;;;;;26.09;43.99;101077.47;7366122;19;21126;-61
2022/07/18 09:14:54;;;;;;;0.08;0.08;;;;;;;26.14;43.94;101067.25;7357482;19;20018;-60
2022/07/18 09:17:28;;;;;;;0.10;0.10;;;;;;;26.28;44.23;101063.44;7361524;19;20010;-60
2022/07/18 09:20:11;;;;;;;0.10;0.10;;;;;;;26.30;43.94;101044.56;7359554;19;20342;-60
2022/07/18 09:22:38;;;;;;;0.10;0.10;;;;;;;26.40;43.91;101057.03;7361348;19;20014;-60
2022/07/18 09:25:12;;;;;;;0.10;0.10;;;;;;;26.51;43.75;101048.16;7352606;19;20013;-60
2022/07/18 09:27:44;;;;;;;0.00;0.00;;;;;;;26.61;43.55;101029.47;7361044;19;20833;-60
2022/07/18 09:30:32;;;;;;;0.05;0.05;;;;;;;26.86;43.55;101030.88;7358666;19;20902;-61
2022/07/18 09:33:03;;;;;;;0.10;0.10;;;;;;;27.10;42.90;101028.81;7354051;19;20383;-60
2022/07/18 09:35:34;;;;;;;0.10;0.10;;;;;;;27.34;42.13;101019.59;7344538;19;20038;-61
2022/07/18 09:38:08;;;;;;;0.00;0.00;;;;;;;27.75;41.07;101023.13;7360549;19;20669;-60
2022/07/18 09:40:37;;;;;;;0.10;0.10;;;;;;;28.07;41.41;101018.38;7360176;19;20056;-61
2022/07/18 09:43:09;;;;;;;0.10;0.10;;;;;;;28.42;41.70;101023.19;7364590;19;20374;-60
2022/07/18 09:45:47;;;;;;;0.10;0.10;;;;;;;28.85;41.57;101021.03;7360721;19;20642;-60
2022/07/18 09:48:17;;;;;;;0.10;0.10;;;;;;;29.10;38.78;101012.34;7363998;19;20011;-60
2022/07/18 09:50:49;;;;;;;0.10;0.10;;;;;;;29.52;38.75;101025.31;7363270;19;20464;-61
2022/07/18 09:53:19;;;;;;;0.10;0.10;;;;;;;29.92;37.09;101024.13;7363387;19;20006;-60
2022/07/18 09:55:56;;;;;;;0.10;0.10;;;;;;;30.44;38.08;101030.50;7355988;19;20011;-61
2022/07/18 09:58:24;;;;;;;0.10;0.10;;;;;;;30.72;37.36;101017.81;7361500;19;20014;-61
2022/07/18 10:00:50;;;;;;;0.10;0.10;;;;;;;31.10;37.11;101014.81;7363765;19;20486;-60
2022/07/18 10:03:17;;;;;;;0.00;0.00;;;;;;;31.53;36.55;101016.56;7361934;19;20002;-61
2022/07/18 10:05:45;;;;;;;0.05;0.05;;;;;;;31.91;35.88;101014.31;7359070;19;20038;-61
2022/07/18 10:08:13;;;;;;;0.10;0.10;;;;;;;32.31;35.52;101018.06;7362417;19;20027;-61
2022/07/18 10:10:41;;;;;;;0.00;0.00;;;;;;;32.67;33.07;101015.88;7363386;19;20007;-60
2022/07/18 10:13:08;;;;;;;0.10;0.10;;;;;;;33.03;33.33;101010.91;7362066;19;20025;-61
2022/07/18 10:15:36;;;;;;;;;;;;;;;33.67;36.08;101025.25;7363076;19;20022;-61
2022/07/18 10:18:04;;;;;;;0.00;0.00;;;;;;;33.88;32.37;101016.47;7362077;19;19914;-61
2022/07/18 10:20:33;;;;;;;0.05;0.05;;;;;;;34.28;33.12;101025.38;7363538;19;20026;-61
2022/07/18 10:23:07;;;;;;;0.00;0.00;;;;;;;34.58;30.32;101021.75;7359385;19;20014;-61
2022/07/18 10:25:33;;;;;;;0.08;0.08;;;;;;;34.77;30.88;101001.34;7360559;19;21028;-58
2022/07/18 10:28:10;;;;;;;0.10;0.10;;;;;;;35.36;32.08;101017.66;7361600;19;20014;-59
2022/07/18 10:30:45;;;;;;;0.00;0.00;;;;;;;35.64;31.86;101003.41;7361138;19;20006;-59
2022/07/18 10:33:39;;;;;;;0.10;0.10;;;;;;;36.19;32.46;101014.66;7360547;19;20015;-59
2022/07/18 10:36:09;;;;;;;0.00;0.00;;;;;;;36.55;28.81;101009.16;7259924;19;2004283;-58
2022/07/18 10:38:35;;;;;;;0.10;0.10;;;;;;;36.79;28.02;101000.50;7357690;19;20014;-59
2022/07/18 10:41:03;;;;;;;0.10;0.10;;;;;;;37.17;27.58;100997.41;7360406;19;20034;-59
2022/07/18 10:43:29;;;;;;;0.10;0.10;;;;;;;37.51;26.65;100995.69;7355722;19;20046;-59
2022/07/18 10:45:55;;;;;;;0.10;0.10;;;;;;;37.83;27.72;100994.97;7346077;19;20010;-59
2022/07/18 10:48:33;;;;;;;0.10;0.10;;;;;;;38.42;28.82;100994.22;7355778;19;20014;-59
2022/07/18 10:51:22;;;;;;;0.10;0.10;;;;;;;38.72;27.28;100996.44;7358137;19;20500;-58
2022/07/18 10:53:53;;;;;;;0.10;0.10;;;;;;;39.12;27.67;100988.19;7358000;19;20010;-58
2022/07/18 10:56:20;;;;;;;0.10;0.10;;;;;;;39.28;25.59;100990.47;7359248;19;20011;-59
2022/07/18 10:58:45;;;;;;;;;;;;;;;39.91;29.13;100993.28;7359777;19;20037;-59
2022/07/18 11:01:16;;;;;;;0.10;0.10;;;;;;;40.06;26.17;100981.19;7360530;19;19919;-59
2022/07/18 11:03:42;;;;;;;0.10;0.10;;;;;;;40.11;23.07;100981.41;7356863;19;20090;-59
2022/07/18 11:06:07;;;;;;;0.10;0.10;;;;;;;40.36;22.27;100979.50;7360420;19;20014;-59
2022/07/18 11:08:33;;;;;;;0.10;0.10;;;;;;;40.58;23.17;100985.41;7360816;19;20010;-59
2022/07/18 11:11:01;;;;;;;0.10;0.10;;;;;;;40.80;24.97;100991.28;7366909;19;20011;-59
2022/07/18 11:13:32;;;;;;;0.10;0.10;;;;;;;41.05;25.34;100988.50;7365460;19;20026;-59
2022/07/18 11:16:08;;;;;;;0.10;0.10;;;;;;;41.56;24.33;100989.13;7366889;19;20028;-59
2022/07/18 11:18:39;;;;;;;;;;;;;;;41.96;26.58;101001.22;7367431;19;20482;-59
2022/07/18 11:21:33;;;;;;;0.10;0.10;;;;;;;41.96;24.98;100990.25;7366931;19;20286;-59
2022/07/18 11:24:00;;;;;;;0.10;0.10;;;;;;;41.89;23.10;100989.53;7264815;19;2004598;-60
2022/07/18 11:26:26;;;;;;;0.20;0.20;;;;;;;41.88;23.23;100976.06;7366207;19;20082;-59
2022/07/18 11:28:59;;;;;;;;;;;;;;;42.44;26.07;100992.00;7365697;19;20102;-59